Latest Weather Observations for Sydney Olympic Park

IDN60801

Issued at 11:03 am EST Saturday 1 October 2016 (issued every 30 minutes, with the page automatically refreshed every 10 minutes)

About weather observations | Map of weather stations | Latest weather observations for NSW | Other Formats
Station Details ID: 066212 Name: SYDNEY OLYMPIC PARK AWS (ARCHERY CENTRE) Lat: -33.83 Lon: 151.07 Height: 4.0 m
Data from the previous 72 hours. | See also: Recent months at Sydney Olympic Park
Date/Time
EST
Temp
°C
App
Temp
°C
Dew
Point
°C
Rel
Hum
%
Delta-T
°C
Wind Press
QNH
hPa
Press
MSL
hPa
Rain since
9am
mm
Dir  Spd
km/h
Gust
km/h
Spd
kts
Gust
kts
01/10:34am 20.1 13.7 7.1 43 6.6 WNW 30 59 16 32 - - 0.0
01/10:30am 19.8 13.9 7.5 45 6.3 WNW 28 44 15 24 - - 0.0
01/10:00am 19.9 13.3 7.6 45 6.3 WNW 32 52 17 28 - - 0.0
01/09:30am 19.5 12.7 6.9 44 6.4 NW 32 54 17 29 - - 0.0
01/09:00am 19.2 12.9 7.3 46 6.0 NW 30 48 16 26 - - 0.0
01/08:33am 18.9 12.9 7.0 46 6.0 NW 28 50 15 27 - - 0.0
01/08:30am 19.2 14.2 8.2 49 5.7 NW 24 39 13 21 - - 0.0
01/08:00am 18.4 13.7 7.8 50 5.4 NW 22 35 12 19 - - 0.0
01/07:30am 17.4 12.8 8.3 55 4.7 NW 22 35 12 19 - - 0.0
01/07:00am 16.5 12.1 7.2 54 4.6 NW 20 32 11 17 - - 0.0
01/06:30am 15.1 11.6 7.2 59 3.9 NW 15 24 8 13 - - 0.0
01/06:00am 14.0 10.4 6.6 61 3.6 NNW 15 22 8 12 - - 0.0
01/05:30am 13.8 10.2 6.9 63 3.3 NNW 15 20 8 11 - - 0.0
01/05:00am 13.8 10.6 6.7 62 3.4 NNW 13 19 7 10 - - 0.0
01/04:30am 14.0 10.4 6.6 61 3.6 NNW 15 22 8 12 - - 0.0
01/04:00am 14.0 10.3 6.4 60 3.6 NNW 15 22 8 12 - - 0.0
01/03:30am 13.8 9.7 6.4 61 3.5 NW 17 28 9 15 - - 0.0
01/03:00am 13.3 10.0 6.6 64 3.2 NNW 13 20 7 11 - - 0.0
01/02:30am 13.0 10.8 6.4 64 3.1 N 7 13 4 7 - - 0.0
01/02:00am 13.3 11.1 6.4 63 3.3 NNW 7 11 4 6 - - 0.0
01/01:30am 13.0 10.2 6.8 66 3.0 NW 11 22 6 12 - - 0.0
01/01:00am 12.8 10.0 6.8 67 2.9 NW 11 17 6 9 - - 0.0
01/12:30am 12.0 9.6 6.9 71 2.4 NW 9 13 5 7 - - 0.0
01/12:00am 12.7 10.8 6.7 67 2.9 NW 6 9 3 5 - - 0.0
 
Date/Time
EST
Temp
°C
App
Temp
°C
Dew
Point
°C
Rel
Hum
%
Delta-T
°C
Wind Press
QNH
hPa
Press
MSL
hPa
Rain since
9am
mm
Dir  Spd
km/h
Gust
km/h
Spd
kts
Gust
kts
30/11:30pm 12.4 9.9 6.7 68 2.7 NW 9 13 5 7 - - 0.0
30/11:00pm 12.4 9.4 6.2 66 2.9 NW 11 19 6 10 - - 0.0
30/10:30pm 12.4 9.4 5.8 64 3.1 NW 11 19 6 10 - - 0.0
30/10:00pm 13.0 10.3 5.7 61 3.4 NW 9 13 5 7 - - 0.0
30/09:30pm 13.4 9.5 5.3 58 3.8 NW 15 24 8 13 - - 0.0
30/09:00pm 13.2 9.8 5.9 61 3.4 NW 13 19 7 10 - - 0.0
30/08:30pm 13.2 9.8 5.9 61 3.4 NW 13 19 7 10 - - 0.0
30/08:00pm 13.6 9.9 6.2 61 3.5 NW 15 22 8 12 - - 0.0
30/07:30pm 13.8 10.5 6.2 60 3.6 NW 13 19 7 10 - - 0.0
30/07:00pm 14.0 10.2 5.9 58 3.8 NW 15 30 8 16 - - 0.0
30/06:30pm 13.6 9.9 6.2 61 3.5 NNW 15 20 8 11 - - 0.0
30/06:00pm 13.7 9.9 5.6 58 3.8 NNW 15 28 8 15 - - 0.0
30/05:30pm 14.3 9.2 5.9 57 4.0 NNW 22 37 12 20 - - 0.0
30/05:00pm 14.9 10.1 5.4 53 4.5 NNW 20 35 11 19 - - 0.0
30/04:30pm 15.6 10.8 5.5 51 4.8 NNW 20 35 11 19 - - 0.0
30/04:00pm 14.6 7.8 5.1 53 4.5 NNW 30 50 16 27 - - 0.0
30/03:46pm 15.3 8.9 5.2 51 4.8 NNW 28 46 15 25 - - 0.0
30/03:30pm 15.9 9.6 5.8 51 4.9 NNW 28 43 15 23 - - 0.0
30/03:01pm 15.9 9.6 5.8 51 4.9 NNW 28 50 15 27 - - 0.0
30/03:00pm 15.9 10.1 6.1 52 4.7 NNW 26 50 14 27 - - 0.0
30/02:30pm 14.8 8.0 5.1 52 4.6 NNW 30 52 16 28 - - 0.0
30/02:05pm 15.3 8.9 5.2 51 4.8 NNW 28 48 15 26 - - 0.0
30/02:00pm 15.5 9.3 6.0 53 4.6 NW 28 44 15 24 - - 0.0
30/01:34pm 15.6 9.3 5.5 51 4.8 NNW 28 46 15 25 - - 0.0
30/01:30pm 15.9 10.4 6.1 52 4.7 NNW 24 39 13 21 - - 0.0
30/01:05pm 16.6 10.4 6.1 50 5.1 NNW 28 46 15 25 - - 0.0
30/01:00pm 17.1 11.7 6.3 49 5.3 NNW 24 39 13 21 - - 0.0
30/12:30pm 17.4 11.1 5.7 46 5.7 NW 28 50 15 27 - - 0.0
30/12:00pm 17.2 11.0 6.1 48 5.4 NNW 28 48 15 26 - - 0.0
30/11:59am 17.3 11.0 5.6 46 5.7 NNW 28 48 15 26 - - 0.0
30/11:30am 17.9 12.2 6.7 48 5.6 NW 26 44 14 24 - - 0.0
30/11:07am 17.4 11.2 6.3 48 5.5 NW 28 46 15 25 - - 0.0
30/11:00am 18.2 13.1 7.6 50 5.4 NW 24 37 13 20 - - 0.0
30/10:30am 19.0 14.8 7.4 47 5.9 NW 19 39 10 21 - - 0.0
30/10:00am 16.9 12.1 5.5 47 5.5 NW 20 32 11 17 - - 0.0
30/09:30am 16.7 12.2 5.9 49 5.2 NW 19 28 10 15 - - 0.0
30/09:00am 15.8 11.4 4.8 48 5.2 NNW 17 32 9 17 - - 0.4
30/08:30am 16.2 10.9 4.9 47 5.3 NNW 22 32 12 17 - - 0.4
30/08:00am 15.9 11.2 5.2 49 5.1 NNW 19 30 10 16 - - 0.4
30/07:30am 15.1 10.7 4.5 49 4.9 N 17 28 9 15 - - 0.4
30/07:00am 14.1 10.4 4.7 53 4.4 N 13 24 7 13 - - 0.4
30/06:30am 12.9 9.1 3.8 54 4.1 N 13 17 7 9 - - 0.4
30/06:00am 12.1 8.9 3.3 55 3.9 N 9 13 5 7 - - 0.4
30/05:30am 12.2 8.7 3.4 55 3.9 NNW 11 19 6 10 - - 0.4
30/05:00am 12.4 8.5 3.6 55 3.9 NNW 13 22 7 12 - - 0.4
30/04:30am 12.3 8.4 3.3 54 4.0 NNW 13 20 7 11 - - 0.4
30/04:00am 12.6 9.0 3.0 52 4.2 NNW 11 19 6 10 - - 0.4
30/03:30am 13.0 9.0 2.8 50 4.5 NNW 13 22 7 12 - - 0.4
30/03:00am 13.2 9.2 3.0 50 4.5 NNW 13 20 7 11 - - 0.4
30/02:30am 13.3 8.6 3.4 51 4.4 NNW 17 35 9 19 - - 0.4
30/02:00am 13.3 8.3 3.7 52 4.3 NNW 19 30 10 16 - - 0.4
30/01:30am 13.2 9.1 4.4 55 4.0 NW 15 24 8 13 - - 0.4
30/01:00am 12.8 9.2 5.0 59 3.6 NW 13 20 7 11 - - 0.4
30/12:30am 12.9 9.7 5.1 59 3.6 NNW 11 20 6 11 - - 0.4
30/12:00am 13.3 10.0 4.5 55 4.0 NNW 11 20 6 11 - - 0.4
 
Date/Time
EST
Temp
°C
App
Temp
°C
Dew
Point
°C
Rel
Hum
%
Delta-T
°C
Wind Press
QNH
hPa
Press
MSL
hPa
Rain since
9am
mm
Dir  Spd
km/h
Gust
km/h
Spd
kts
Gust
kts
29/11:30pm 13.8 10.5 4.7 54 4.2 NNW 11 20 6 11 - - 0.4
29/11:00pm 14.7 10.2 4.1 49 4.9 NW 17 26 9 14 - - 0.4
29/10:30pm 14.8 10.4 4.8 51 4.7 NW 17 28 9 15 - - 0.4
29/10:00pm 15.2 10.2 3.7 46 5.3 NW 19 32 10 17 - - 0.4
29/09:37pm 16.2 9.5 3.9 44 5.7 NW 28 46 15 25 - - 0.4
29/09:30pm 16.1 11.2 4.2 45 5.5 NW 19 41 10 22 - - 0.4
29/09:00pm 15.2 11.9 4.6 49 4.9 NW 11 17 6 9 - - 0.4
29/08:30pm 15.5 12.2 4.8 49 5.0 NW 11 15 6 8 - - 0.4
29/08:00pm 16.0 12.5 5.6 50 5.0 NW 13 20 7 11 - - 0.4
29/07:30pm 16.4 13.0 6.0 50 5.0 NW 13 22 7 12 - - 0.4
29/07:00pm 16.8 13.2 5.1 46 5.6 NW 13 26 7 14 - - 0.4
29/06:30pm 17.6 12.9 5.2 44 6.0 NW 19 32 10 17 - - 0.4
29/06:00pm 18.2 12.5 4.7 41 6.5 NW 24 41 13 22 - - 0.4
29/05:31pm 19.6 13.1 4.5 37 7.3 NW 28 46 15 25 - - 0.4
29/05:30pm 19.6 13.0 4.1 36 7.4 NW 28 44 15 24 - - 0.4
29/05:00pm 20.8 15.5 4.8 35 7.8 NW 22 41 12 22 - - 0.4
29/04:30pm 21.5 17.0 7.0 39 7.4 NNW 20 39 11 21 - - 0.4
29/04:00pm 21.9 18.6 9.4 45 6.7 NNW 17 35 9 19 - - 0.4
29/03:30pm 22.1 19.0 11.5 51 5.9 NNW 19 32 10 17 - - 0.4
29/03:00pm 21.7 18.6 12.3 55 5.3 NNW 20 32 11 17 - - 0.4
29/02:30pm 20.5 16.7 13.7 65 3.9 NNW 26 39 14 21 - - 0.4
29/02:00pm 20.9 17.6 14.1 65 3.9 NNW 24 43 13 23 - - 0.4
29/01:30pm 20.7 19.7 15.7 73 3.0 N 15 24 8 13 - - 0.4
29/01:00pm 18.6 16.7 14.1 75 2.6 NNE 17 28 9 15 - - 0.4
29/12:30pm 18.1 16.8 12.5 70 3.1 NE 11 17 6 9 - - 0.4
29/12:00pm 17.1 15.8 12.4 74 2.6 N 11 20 6 11 - - 0.4
29/11:30am 17.4 17.6 14.3 82 1.8 ENE 6 11 3 6 - - 0.4
29/11:00am 15.6 15.4 12.9 84 1.5 NE 6 9 3 5 - - 0.4
29/10:38am 13.8 14.7 12.9 94 0.5 CALM 0 0 0 0 - - 0.4
29/10:30am 13.5 14.3 12.7 95 0.4 CALM 0 0 0 0 - - 0.4
29/10:25am 13.5 14.4 12.9 96 0.3 CALM 0 0 0 0 - - 0.2
29/10:00am 13.2 13.3 12.6 96 0.3 WNW 4 7 2 4 - - 0.2
29/09:43am 13.0 12.5 12.5 97 0.3 NW 7 11 4 6 - - 0.2
29/09:30am 12.9 11.9 12.4 97 0.3 WNW 9 11 5 6 - - 0.2
29/09:27am 12.9 12.4 12.6 98 0.2 WNW 7 11 4 6 - - 0.2
29/09:05am 12.5 12.3 11.9 96 0.3 SW 4 7 2 4 - - 0.0
29/09:00am 12.4 12.6 11.9 97 0.3 WSW 2 7 1 4 - - 2.2
29/08:37am 12.4 12.2 11.9 97 0.3 NW 4 7 2 4 - - 2.0
29/08:30am 12.3 12.1 11.7 96 0.3 NW 4 7 2 4 - - 1.8
29/08:26am 12.4 11.9 11.9 97 0.3 NW 6 9 3 5 - - 1.8
29/08:00am 12.3 11.2 12.0 98 0.2 WNW 9 15 5 8 - - 1.4
29/07:52am 12.1 11.4 11.5 96 0.3 S 6 9 3 5 - - 1.0
29/07:30am 12.0 11.2 11.1 94 0.5 SSE 6 11 3 6 - - 0.6
29/07:00am 12.0 10.3 9.9 87 1.1 WNW 9 13 5 7 - - 0.2
29/06:30am 11.8 11.7 9.5 86 1.2 CALM 0 6 0 3 - - 0.0
29/06:00am 11.4 10.6 9.5 88 1.0 E 4 7 2 4 - - 0.0
29/05:30am 11.0 10.5 9.3 89 0.8 WNW 2 7 1 4 - - 0.0
29/05:00am 10.7 9.4 9.3 91 0.7 WNW 6 11 3 6 - - 0.0
29/04:30am 10.3 10.2 9.4 94 0.4 CALM 0 0 0 0 - - 0.0
29/04:00am 10.0 9.8 9.2 95 0.4 CALM 0 0 0 0 - - 0.0
29/03:30am 9.7 9.5 8.9 95 0.4 CALM 0 0 0 0 - - 0.0
29/03:00am 9.4 9.0 8.3 93 0.5 CALM 0 0 0 0 - - 0.0
29/02:30am 9.7 9.4 8.6 93 0.5 CALM 0 0 0 0 - - 0.0
29/02:00am 9.5 9.0 7.9 90 0.8 CALM 0 0 0 0 - - 0.0
29/01:30am 9.7 9.3 8.3 91 0.7 CALM 0 0 0 0 - - 0.0
29/01:00am 10.0 9.6 8.4 90 0.8 CALM 0 0 0 0 - - 0.0
29/12:30am 10.1 9.8 8.7 91 0.7 CALM 0 0 0 0 - - 0.0
29/12:00am 10.3 10.0 8.6 89 0.8 CALM 0 0 0 0 - - 0.0
 
Date/Time
EST
Temp
°C
App
Temp
°C
Dew
Point
°C
Rel
Hum
%
Delta-T
°C
Wind Press
QNH
hPa
Press
MSL
hPa
Rain since
9am
mm
Dir  Spd
km/h
Gust
km/h
Spd
kts
Gust
kts
28/11:30pm 10.9 10.7 9.0 88 0.9 CALM 0 0 0 0 - - 0.0
28/11:00pm 11.1 10.8 8.5 84 1.3 CALM 0 0 0 0 - - 0.0
28/10:30pm 12.0 11.8 9.2 83 1.4 CALM 0 0 0 0 - - 0.0
28/10:00pm 12.3 11.9 8.4 77 1.9 CALM 0 0 0 0 - - 0.0
28/09:30pm 13.2 12.6 7.6 69 2.7 CALM 0 0 0 0 - - 0.0
28/09:00pm 14.2 13.7 7.9 66 3.1 CALM 0 6 0 3 - - 0.0
28/08:30pm 15.0 13.7 7.8 62 3.6 NNE 4 7 2 4 - - 0.0
28/08:00pm 15.7 13.8 6.7 55 4.4 NNE 6 13 3 7 - - 0.0
28/07:30pm 16.1 13.6 6.5 53 4.7 NE 9 13 5 7 - - 0.0
28/07:00pm 16.5 14.4 6.6 52 4.9 NE 7 13 4 7 - - 0.0
28/06:30pm 16.8 14.6 6.3 50 5.1 ENE 7 11 4 6 - - 0.0
28/06:00pm 17.2 14.5 5.8 47 5.5 ENE 9 15 5 8 - - 0.0
28/05:30pm 17.8 15.1 5.7 45 5.9 ENE 9 17 5 9 - - 0.0
28/05:00pm 18.3 13.8 6.2 45 6.0 E 19 26 10 14 - - 0.0
28/04:30pm 18.5 14.0 6.0 44 6.1 ESE 19 26 10 14 - - 0.0
28/04:00pm 18.7 14.4 7.2 47 5.8 E 19 28 10 15 - - 0.0
28/03:30pm 19.1 15.2 7.2 46 6.0 E 17 28 9 15 - - 0.0
28/03:00pm 19.6 16.3 8.0 47 6.0 ESE 15 20 8 11 - - 0.0
28/02:30pm 19.7 16.0 8.1 47 6.0 E 17 22 9 12 - - 0.0
28/02:00pm 20.1 17.5 7.8 45 6.3 ENE 11 17 6 9 - - 0.0
28/01:30pm 20.4 17.0 6.0 39 7.2 E 13 24 7 13 - - 0.0
28/01:00pm 20.4 17.8 4.4 35 7.7 SE 7 17 4 9 - - 0.0
28/12:30pm 20.6 17.6 4.2 34 7.9 NE 9 19 5 10 - - 0.0
28/12:00pm 19.8 16.8 3.9 35 7.6 NE 9 13 5 7 - - 0.0
28/11:30am 19.9 17.5 4.4 36 7.5 NNE 6 13 3 7 - - 0.0

Other Formats:

Comma delimited format used in spreadsheet applications
http://www.bom.gov.au/fwo/IDN60801/IDN60801.95765.axf

JavaScript Object Notation format (JSON) in row-major order
http://www.bom.gov.au/fwo/IDN60801/IDN60801.95765.json